CST,Max TemperatureF,Mean TemperatureF,Min TemperatureF,Max Dew PointF,MeanDew PointF,Min DewpointF,Max Humidity, Mean Humidity, Min Humidity, Max Sea Level PressureIn, Mean Sea Level PressureIn, Min Sea Level PressureIn, Max VisibilityMiles, Mean VisibilityMiles, Min VisibilityMiles, Max Wind SpeedMPH, Mean Wind SpeedMPH, Max Gust SpeedMPH,PrecipitationIn, CloudCover, Events, WindDirDegrees
2013-1-1,19,13,7,12,5,1,84,71,54,30.40,30.30,30.25,10,10,10,10,5,,0.02,1,,309
2013-1-2,32,24,15,26,18,11,85,78,71,30.27,30.18,30.10,10,10,10,10,7,,0.02,4,,256
2013-1-3,32,24,15,26,18,10,88,78,66,30.45,30.39,30.27,10,10,7,12,8,17,0.00,4,,288
2013-1-4,36,26,15,24,19,11,88,77,59,30.40,30.30,30.21,10,10,9,10,7,,0.00,0,,207
2013-1-5,42,34,25,32,25,19,85,75,64,30.22,30.13,30.04,10,10,10,24,10,31,0.00,2,,234
2013-1-6,39,28,17,23,19,14,88,71,50,30.40,30.30,30.20,10,10,10,21,11,30,0.00,2,,261
2013-1-7,50,39,28,28,24,20,72,59,41,30.21,30.08,29.99,10,10,10,20,11,28,0.00,0,,190
2013-1-8,54,42,30,33,28,24,86,68,43,30.19,30.00,29.88,10,10,10,21,10,29,0.00,0,,218
2013-1-9,55,39,23,34,27,21,92,68,37,30.47,30.36,30.20,10,10,9,6,3,,0.00,0,,198
2013-1-10,41,38,35,39,36,25,100,91,53,30.34,29.91,29.71,10,4,0,18,7,25,0.19,7,Fog-Rain,134
2013-1-11,55,46,35,46,41,22,100,87,28,29.78,29.61,29.47,10,7,0,30,9,40,0.00,6,Fog,178
2013-1-12,33,24,15,28,13,6,81,63,47,30.16,30.04,29.78,10,10,10,22,14,30,0.00,3,,313
2013-1-13,24,16,8,6,4,3,80,65,40,30.41,30.27,30.16,10,10,6,17,10,25,0.00,1,Snow,309
2013-1-14,30,16,3,11,7,0,87,65,40,30.55,30.45,30.41,10,10,10,6,2,,0.00,0,,213
2013-1-15,34,23,12,15,11,9,88,62,38,30.42,30.31,30.14,10,10,10,9,2,,0.00,1,,191
2013-1-16,53,36,19,33,23,12,82,64,44,30.23,30.07,29.97,10,10,10,14,9,17,0.00,1,,263
2013-1-17,48,36,24,31,27,22,93,78,50,30.50,30.41,30.27,10,9,6,7,5,,0.00,0,,55
2013-1-18,61,47,33,31,29,27,78,57,30,30.34,30.11,29.94,10,10,10,26,14,38,0.00,0,,207
2013-1-19,60,47,30,31,28,23,79,58,26,30.32,30.05,29.91,10,10,10,20,10,30,0.00,0,,290
2013-1-20,28,21,12,14,9,4,77,60,39,30.47,30.40,30.33,10,10,10,13,8,18,0.00,2,,8
2013-1-21,15,12,10,9,2,-5,84,62,41,30.51,30.45,30.43,10,10,4,16,5,22,0.00,6,Snow,335
2013-1-22,27,18,10,8,5,1,73,59,43,30.45,30.37,30.31,10,10,9,9,3,,0.00,2,,111
2013-1-23,39,24,10,18,12,6,81,64,43,30.51,30.32,30.24,10,10,10,16,6,22,0.00,0,,29
2013-1-24,23,14,5,9,1,-3,70,55,42,30.58,30.42,30.21,10,10,10,15,9,,0.00,2,,93
2013-1-25,50,34,17,22,15,8,69,53,33,30.26,30.21,30.17,10,10,10,10,4,,0.00,1,,271
2013-1-26,54,38,21,25,22,17,85,63,28,30.30,30.20,30.06,10,10,9,14,6,,0.00,0,,124
2013-1-27,51,44,37,49,42,26,100,93,60,30.02,29.82,29.71,10,5,1,14,10,17,0.20,8,Rain,163
2013-1-28,69,52,35,57,43,34,100,89,47,29.87,29.76,29.56,10,4,0,13,5,20,0.01,5,Fog,100
2013-1-29,64,48,32,59,34,29,93,88,80,29.68,29.60,29.52,10,7,2,20,13,28,0.01,7,Snow,346
2013-1-30,32,24,12,30,19,8,93,80,58,29.99,29.77,29.56,10,5,0,30,17,41,0.00,7,Fog-Snow,319
2013-1-31,18,10,0,13,1,-6,81,66,56,30.53,30.26,29.98,10,10,10,24,10,37,0.00,4,,313